Time;durP1;ratioP1;P1;durP2;ratioP2;P2;SDS_P1;SDS_P2;PMS_P1;PMS_P2;Temp;Humidity;BMP_temperature;BMP_pressure;BME280_temperature;BME280_humidity;BME280_pressure;Samples;Min_cycle;Max_cycle;Signal;HPM_P1;HPM_P2
2021/12/23 00:01:37;;;;;;;;;61.00;48.67;;;;;-0.41;100.00;101356.16;5018573;28;44829;-82
2021/12/23 00:04:03;;;;;;;;;71.00;51.67;;;;;-0.41;100.00;101361.38;5018683;28;44771;-83
2021/12/23 00:06:30;;;;;;;;;59.00;44.33;;;;;-0.42;100.00;101356.19;5018719;28;45324;-83
2021/12/23 00:08:59;;;;;;;;;65.00;51.33;;;;;-0.48;100.00;101364.94;5018688;28;45309;-84
2021/12/23 00:11:25;;;;;;;;;71.33;52.67;;;;;-0.52;100.00;101368.47;5018961;28;44834;-83
2021/12/23 00:14:00;;;;;;;;;61.00;50.00;;;;;-0.56;100.00;101367.63;5018761;28;45364;-83
2021/12/23 00:16:46;;;;;;;;;62.00;47.33;;;;;-0.55;100.00;101365.88;5019052;28;44923;-82
2021/12/23 00:19:37;;;;;;;;;62.33;43.00;;;;;-0.57;100.00;101355.47;5017462;28;45144;-83
2021/12/23 00:24:48;;;;;;;;;69.67;52.33;;;;;-0.64;100.00;101339.88;5022382;28;45458;-82
2021/12/23 00:27:14;;;;;;;;;63.00;48.67;;;;;-0.68;100.00;101339.06;5026897;28;45359;-83
2021/12/23 00:29:40;;;;;;;;;66.67;48.00;;;;;-0.70;100.00;101340.84;5024838;28;45111;-83
2021/12/23 00:32:08;;;;;;;;;75.00;53.33;;;;;-0.72;100.00;101336.53;5018029;28;45270;-81
2021/12/23 00:34:34;;;;;;;;;76.67;54.67;;;;;-0.75;100.00;101349.59;5018701;28;44761;-83
2021/12/23 00:37:01;;;;;;;;;75.00;55.33;;;;;-0.79;100.00;101340.91;5021160;28;45551;-82
2021/12/23 00:39:27;;;;;;;;;72.67;48.00;;;;;-0.82;100.00;101344.44;5021312;28;45148;-83
2021/12/23 00:41:54;;;;;;;;;72.00;52.33;;;;;-0.83;100.00;101337.47;5019822;28;45413;-82
2021/12/23 00:44:20;;;;;;;;;73.00;53.67;;;;;-0.84;100.00;101327.94;5016546;28;44812;-84
2021/12/23 00:46:45;;;;;;;;;76.67;51.00;;;;;-0.88;100.00;101330.59;5018178;28;44782;-82
2021/12/23 00:49:11;;;;;;;;;65.00;51.33;;;;;-0.89;100.00;101334.94;5017942;28;45091;-82
2021/12/23 00:51:37;;;;;;;;;69.33;51.67;;;;;-0.90;100.00;101324.53;5017764;28;44750;-83
2021/12/23 00:54:06;;;;;;;;;69.67;53.67;;;;;-0.90;100.00;101325.41;5017250;28;44799;-82
2021/12/23 00:56:36;;;;;;;;;76.00;56.67;;;;;-0.91;100.00;101320.22;5018074;28;44961;-83
2021/12/23 00:59:06;;;;;;;;;64.67;47.33;;;;;-0.94;100.00;101310.66;5020164;28;45224;-83
2021/12/23 01:01:31;;;;;;;;;66.00;52.33;;;;;-0.95;100.00;101316.75;5021960;28;44736;-85
2021/12/23 01:03:57;;;;;;;;;70.00;54.33;;;;;-0.95;100.00;101316.75;5018724;28;44703;-83
2021/12/23 01:06:22;;;;;;;;;72.33;51.33;;;;;-0.94;100.00;101313.25;5018062;28;44835;-83
2021/12/23 01:08:48;;;;;;;;;60.33;50.00;;;;;-0.95;100.00;101305.47;5017911;28;45211;-83
2021/12/23 01:11:13;;;;;;;;;71.67;53.00;;;;;-0.95;100.00;101303.72;5019038;28;45293;-82
2021/12/23 01:13:46;;;;;;;;;70.00;51.00;;;;;-0.93;100.00;101295.88;5020242;28;44755;-82
2021/12/23 01:16:24;;;;;;;;;65.67;49.00;;;;;-0.93;100.00;101299.34;5025807;28;45484;-82
2021/12/23 01:18:54;;;;;;;;;75.33;49.33;;;;;-0.92;100.00;101290.66;5026135;28;45040;-82
2021/12/23 01:21:19;;;;;;;;;72.33;53.00;;;;;-0.92;100.00;101298.47;5023431;28;44715;-82
2021/12/23 01:23:56;;;;;;;;;65.00;50.33;;;;;-0.89;100.00;101298.44;5018860;28;44756;-82
2021/12/23 01:26:24;;;;;;;;;72.33;55.00;;;;;-0.89;100.00;101300.19;5018284;28;44662;-82
2021/12/23 01:28:53;;;;;;;;;69.33;53.33;;;;;-0.89;100.00;101294.97;5018760;28;45380;-83
2021/12/23 01:31:21;;;;;;;;;53.67;48.33;;;;;-0.91;100.00;101284.56;5018126;28;44734;-81
2021/12/23 01:33:47;;;;;;;;;66.33;45.00;;;;;-0.87;100.00;101290.56;5017716;28;44812;-82
2021/12/23 01:36:12;;;;;;;;;77.33;51.67;;;;;-0.86;100.00;101280.16;5034133;28;45255;-82
2021/12/23 01:38:37;;;;;;;;;68.67;52.33;;;;;-0.85;100.00;101281.00;5020987;28;45207;-81
2021/12/23 01:41:03;;;;;;;;;61.00;47.33;;;;;-0.83;100.00;101287.06;5031429;28;45268;-83
2021/12/23 01:43:29;;;;;;;;;65.67;50.33;;;;;-0.82;100.00;101288.81;5037790;28;44952;-80
2021/12/23 01:45:54;;;;;;;;;66.00;48.67;;;;;-0.81;100.00;101278.34;5035931;28;45346;-81
2021/12/23 01:48:20;;;;;;;;;68.33;52.67;;;;;-0.79;100.00;101288.75;5036642;28;45318;-83
2021/12/23 01:50:46;;;;;;;;;67.00;48.33;;;;;-0.79;100.00;101276.56;5038204;28;44845;-81
2021/12/23 01:53:12;;;;;;;;;65.67;48.33;;;;;-0.76;100.00;101269.63;5026937;28;44857;-82
2021/12/23 01:55:38;;;;;;;;;65.67;47.67;;;;;-0.72;100.00;101272.16;5017337;28;44889;-82
2021/12/23 01:58:06;;;;;;;;;70.00;51.33;;;;;-0.68;100.00;101263.41;5017359;28;45158;-82
2021/12/23 02:00:34;;;;;;;;;74.00;52.33;;;;;-0.66;100.00;101263.41;5016719;28;45251;-83
2021/12/23 02:03:00;;;;;;;;;75.33;57.67;;;;;-0.66;100.00;101260.78;5020168;28;44699;-82
2021/12/23 02:05:27;;;;;;;;;68.00;52.33;;;;;-0.63;100.00;101259.03;5020131;28;44881;-83
2021/12/23 02:07:53;;;;;;;;;71.33;52.67;;;;;-0.59;100.00;101254.59;5038048;28;46779;-82
2021/12/23 02:10:18;;;;;;;;;67.33;52.33;;;;;-0.57;100.00;101255.47;5024868;28;44846;-83
2021/12/23 02:12:46;;;;;;;;;69.33;54.33;;;;;-0.55;100.00;101251.94;5019485;28;45139;-82
2021/12/23 02:15:13;;;;;;;;;68.33;50.00;;;;;-0.52;100.00;101246.69;5017573;28;44810;-82
2021/12/23 02:17:39;;;;;;;;;65.00;48.00;;;;;-0.48;100.00;101252.75;5016290;28;45016;-81
2021/12/23 02:20:10;;;;;;;;;68.00;53.67;;;;;-0.47;100.00;101249.25;5017828;28;45119;-83
2021/12/23 02:22:36;;;;;;;;;71.33;53.00;;;;;-0.44;100.00;101258.75;5018312;28;45284;-82
2021/12/23 02:25:04;;;;;;;;;67.00;46.00;;;;;-0.42;100.00;101257.00;5024393;28;45241;-82
2021/12/23 02:27:30;;;;;;;;;67.67;52.33;;;;;-0.41;100.00;101250.91;5021474;28;45278;-82
2021/12/23 02:29:55;;;;;;;;;74.00;52.67;;;;;-0.38;100.00;101243.91;5034922;28;44769;-83
2021/12/23 02:32:20;;;;;;;;;64.00;46.00;;;;;-0.34;100.00;101242.09;5053944;28;44826;-82
2021/12/23 02:34:46;;;;;;;;;74.33;55.67;;;;;-0.33;100.00;101234.25;5038963;28;44744;-80
2021/12/23 02:37:13;;;;;;;;;69.33;53.67;;;;;-0.31;100.00;101229.88;5040272;28;44909;-81
2021/12/23 02:39:40;;;;;;;;;76.00;55.33;;;;;-0.31;100.00;101227.25;5038032;28;44775;-82
2021/12/23 02:42:06;;;;;;;;;71.67;53.67;;;;;-0.31;100.00;101237.69;5030635;28;45163;-82
2021/12/23 02:44:32;;;;;;;;;68.00;51.00;;;;;-0.31;100.00;101234.22;5029357;28;44984;-83
2021/12/23 02:46:57;;;;;;;;;61.00;45.00;;;;;-0.28;100.00;101232.44;5028107;28;45202;-83
2021/12/23 02:49:22;;;;;;;;;78.00;54.67;;;;;-0.27;100.00;101228.94;5027577;28;44784;-81
2021/12/23 02:51:48;;;;;;;;;73.00;54.00;;;;;-0.28;100.00;101223.75;5025908;28;44815;-82
2021/12/23 02:54:13;;;;;;;;;62.33;49.00;;;;;-0.24;100.00;101225.44;5021218;28;44885;-83
2021/12/23 02:56:39;;;;;;;;;69.67;51.00;;;;;-0.27;100.00;101223.72;5020210;28;45195;-82
2021/12/23 02:59:05;;;;;;;;;67.33;51.33;;;;;-0.25;100.00;101231.50;5023511;28;44846;-82
2021/12/23 03:01:30;;;;;;;;;70.67;52.00;;;;;-0.23;100.00;101227.16;5024165;28;45767;-83
2021/12/23 03:03:55;;;;;;;;;72.67;53.67;;;;;-0.22;100.00;101223.66;5019240;28;44852;-82
2021/12/23 03:06:22;;;;;;;;;65.33;50.33;;;;;-0.21;100.00;101224.50;5017323;28;46073;-82
2021/12/23 03:08:51;;;;;;;;;67.33;49.67;;;;;-0.22;100.00;101218.44;5016717;28;44628;-82
2021/12/23 03:11:20;;;;;;;;;70.67;57.33;;;;;-0.21;100.00;101219.28;5016926;28;44696;-83
2021/12/23 03:13:47;;;;;;;;;65.33;50.67;;;;;-0.21;100.00;101212.31;5017040;28;44933;-82
2021/12/23 03:16:15;;;;;;;;;74.00;54.00;;;;;-0.19;100.00;101209.66;5018086;28;45325;-81
2021/12/23 03:18:41;;;;;;;;;73.67;52.67;;;;;-0.17;100.00;101213.13;5020122;28;45213;-82
2021/12/23 03:21:06;;;;;;;;;67.33;48.67;;;;;-0.20;100.00;101203.59;5019127;28;44797;-82
2021/12/23 03:23:34;;;;;;;;;67.00;49.67;;;;;-0.18;100.00;101198.38;5015348;28;44909;-81
2021/12/23 03:26:01;;;;;;;;;62.33;48.00;;;;;-0.15;100.00;101200.91;5016476;28;45084;-81
2021/12/23 03:28:26;;;;;;;;;73.00;52.33;;;;;-0.16;100.00;101207.88;5017906;28;45329;-81
2021/12/23 03:30:52;;;;;;;;;69.33;52.33;;;;;-0.19;100.00;101200.13;5035264;28;44707;-82
2021/12/23 03:33:18;;;;;;;;;74.33;52.33;;;;;-0.21;100.00;101199.25;5020237;28;44803;-82
2021/12/23 03:35:45;;;;;;;;;64.00;47.33;;;;;-0.23;100.00;101190.59;5019213;28;45469;-82
2021/12/23 03:38:11;;;;;;;;;73.33;54.00;;;;;-0.21;100.00;101181.00;5019861;28;44691;-81
2021/12/23 03:40:38;;;;;;;;;62.67;50.67;;;;;-0.22;100.00;101181.03;5019176;28;44964;-83
2021/12/23 03:43:03;;;;;;;;;59.00;44.00;;;;;-0.23;100.00;101180.16;5020460;28;44797;-82
2021/12/23 03:45:29;;;;;;;;;75.33;51.67;;;;;-0.23;100.00;101180.16;5023912;28;45305;-83
2021/12/23 03:47:55;;;;;;;;;65.67;50.67;;;;;-0.20;100.00;101179.22;5023278;28;44789;-81
2021/12/23 03:50:23;;;;;;;;;73.00;51.33;;;;;-0.22;100.00;101168.81;5028335;28;45062;-82
2021/12/23 03:52:49;;;;;;;;;70.67;54.33;;;;;-0.22;100.00;101166.22;5028150;28;44844;-81
2021/12/23 03:55:16;;;;;;;;;71.00;56.00;;;;;-0.23;100.00;101168.88;5020131;28;45219;-81
2021/12/23 03:57:41;;;;;;;;;70.00;52.00;;;;;-0.24;100.00;101168.00;5019039;28;44913;-82
2021/12/23 04:00:10;;;;;;;;;78.00;59.00;;;;;-0.23;100.00;101168.88;5019165;28;45182;-82
2021/12/23 04:02:35;;;;;;;;;59.67;42.33;;;;;-0.26;100.00;101157.56;5019423;28;45224;-82
2021/12/23 04:05:02;;;;;;;;;75.67;56.33;;;;;-0.26;100.00;101156.69;5020120;28;45094;-82
2021/12/23 04:07:28;;;;;;;;;66.33;54.00;;;;;-0.27;100.00;101162.81;5018979;28;44755;-82
2021/12/23 04:09:53;;;;;;;;;72.33;53.67;;;;;-0.28;100.00;101151.53;5018774;28;44813;-82
2021/12/23 04:12:19;;;;;;;;;73.33;50.33;;;;;-0.26;100.00;101157.56;5033939;28;44853;-83
2021/12/23 04:14:44;;;;;;;;;66.33;52.00;;;;;-0.25;100.00;101155.81;5017486;28;46738;-82
2021/12/23 04:17:09;;;;;;;;;74.67;54.00;;;;;-0.26;100.00;101149.72;5034521;28;44787;-82
2021/12/23 04:19:35;;;;;;;;;72.33;53.00;;;;;-0.25;100.00;101140.16;5035121;28;44789;-82
2021/12/23 04:22:00;;;;;;;;;69.00;57.67;;;;;-0.26;100.00;101131.47;5019093;28;44798;-83
2021/12/23 04:24:26;;;;;;;;;67.67;53.00;;;;;-0.26;100.00;101131.47;5018624;28;45172;-82
2021/12/23 04:26:52;;;;;;;;;69.67;53.33;;;;;-0.23;100.00;101130.56;5018916;28;45322;-81
2021/12/23 04:29:18;;;;;;;;;79.33;57.33;;;;;-0.21;100.00;101123.56;5020779;28;44760;-81
2021/12/23 04:31:44;;;;;;;;;70.00;52.67;;;;;-0.20;100.00;101117.44;5020074;28;44890;-82
2021/12/23 04:34:10;;;;;;;;;73.00;56.67;;;;;-0.19;100.00;101132.25;5018850;28;46083;-80
2021/12/23 04:36:35;;;;;;;;;71.00;52.67;;;;;-0.17;100.00;101129.59;5019764;28;44808;-81
2021/12/23 04:39:02;;;;;;;;;70.00;51.33;;;;;-0.15;100.00;101130.41;5018719;28;44797;-81
2021/12/23 04:41:28;;;;;;;;;67.67;51.00;;;;;-0.15;100.00;101126.06;5025428;28;44711;-82
2021/12/23 04:43:54;;;;;;;;;73.67;57.33;;;;;-0.12;100.00;101120.78;5026331;28;45085;-82
2021/12/23 04:46:20;;;;;;;;;64.33;54.00;;;;;-0.11;100.00;101119.03;5024062;28;44786;-82
2021/12/23 04:48:45;;;;;;;;;67.00;53.67;;;;;-0.09;100.00;101120.75;5024105;28;44742;-83
2021/12/23 04:51:12;;;;;;;;;70.00;56.00;;;;;-0.06;100.00;101122.44;5023371;28;44720;-83
2021/12/23 04:53:38;;;;;;;;;70.33;56.67;;;;;-0.03;100.00;101123.25;5019020;28;45293;-82
2021/12/23 04:56:05;;;;;;;;;68.67;53.33;;;;;0.01;100.00;101121.47;5018905;28;44782;-83
2021/12/23 04:58:30;;;;;;;;;76.33;53.33;;;;;0.03;100.00;101116.19;5019747;28;44808;-81
2021/12/23 05:00:56;;;;;;;;;80.33;57.00;;;;;0.05;100.00;101115.28;5019102;28;44834;-83
2021/12/23 05:03:24;;;;;;;;;69.67;53.00;;;;;0.05;100.00;101111.78;5018267;28;44942;-83
2021/12/23 05:05:49;;;;;;;;;73.67;54.33;;;;;0.07;100.00;101108.28;5017692;28;45396;-83
2021/12/23 05:08:15;;;;;;;;;76.33;55.33;;;;;0.06;100.00;101106.56;5018435;28;44800;-83
2021/12/23 05:10:41;;;;;;;;;71.33;53.33;;;;;0.09;100.00;101105.63;5018213;28;45686;-81
2021/12/23 05:13:08;;;;;;;;;66.67;51.33;;;;;0.13;100.00;101108.16;5017674;28;45263;-83
2021/12/23 05:15:34;;;;;;;;;72.00;54.67;;;;;0.14;100.00;101104.66;5017554;28;44825;-82
2021/12/23 05:18:00;;;;;;;;;66.33;51.00;;;;;0.15;100.00;101100.31;5016673;28;45297;-83
2021/12/23 05:20:26;;;;;;;;;75.00;52.67;;;;;0.19;100.00;101105.47;5017356;28;45442;-83
2021/12/23 05:22:51;;;;;;;;;70.67;54.67;;;;;0.20;100.00;101101.09;5034443;28;46706;-83
2021/12/23 05:25:17;;;;;;;;;74.67;49.67;;;;;0.21;100.00;101092.38;5020135;28;44841;-83
2021/12/23 05:27:44;;;;;;;;;73.00;54.67;;;;;0.20;100.00;101091.50;5021411;28;45384;-83
2021/12/23 05:30:12;;;;;;;;;75.67;57.33;;;;;0.20;100.00;101085.44;5020604;28;45064;-81
2021/12/23 05:32:38;;;;;;;;;72.67;56.33;;;;;0.20;100.00;101088.91;5023210;28;45283;-82
2021/12/23 05:35:06;;;;;;;;;74.00;54.33;;;;;0.21;100.00;101088.00;5029233;28;44787;-81
2021/12/23 05:37:31;;;;;;;;;68.00;55.33;;;;;0.22;100.00;101087.09;5024400;28;45178;-81
2021/12/23 05:39:57;;;;;;;;;72.33;51.67;;;;;0.22;100.00;101068.81;5019027;28;44798;-82
2021/12/23 05:42:22;;;;;;;;;57.67;48.67;;;;;0.24;100.00;101074.88;5018185;28;45450;-82
2021/12/23 05:44:47;;;;;;;;;75.00;56.00;;;;;0.26;100.00;101074.84;5017582;28;44708;-81
2021/12/23 05:47:13;;;;;;;;;74.75;58.00;;;;;0.28;100.00;101073.06;5018765;28;45110;-82
2021/12/23 05:49:38;;;;;;;;;70.67;55.67;;;;;0.27;100.00;101070.47;5022384;28;44695;-82
2021/12/23 05:52:04;;;;;;;;;77.25;58.50;;;;;0.28;100.00;101066.97;5022168;28;45085;-82
2021/12/23 05:54:30;;;;;;;;;72.67;56.67;;;;;0.29;100.00;101072.19;5020762;28;44667;-81
2021/12/23 05:57:01;;;;;;;;;80.50;57.75;;;;;0.30;100.00;101063.44;5016270;28;45309;-83
2021/12/23 05:59:28;;;;;;;;;78.67;59.33;;;;;0.32;100.00;101073.88;5017363;28;44738;-83
2021/12/23 06:01:53;;;;;;;;;79.00;61.67;;;;;0.31;100.00;101069.53;5016964;28;44995;-82
2021/12/23 06:04:18;;;;;;;;;78.67;57.00;;;;;0.33;100.00;101072.97;5019462;28;44767;-83
2021/12/23 06:06:44;;;;;;;;;72.67;53.33;;;;;0.32;100.00;101074.72;5021878;28;45175;-83
2021/12/23 06:09:12;;;;;;;;;69.67;55.00;;;;;0.35;100.00;101077.28;5019911;28;44853;-84
2021/12/23 06:11:37;;;;;;;;;72.67;58.00;;;;;0.35;100.00;101074.69;5017080;28;45165;-83
2021/12/23 06:14:03;;;;;;;;;70.50;56.00;;;;;0.38;100.00;101063.28;5015900;28;44817;-83
2021/12/23 06:16:28;;;;;;;;;69.00;51.33;;;;;0.38;100.00;101063.28;5016445;28;45382;-82
2021/12/23 06:18:53;;;;;;;;;68.67;53.33;;;;;0.37;100.00;101074.63;5035608;28;44810;-82
2021/12/23 06:21:20;;;;;;;;;67.00;52.33;;;;;0.38;100.00;101073.75;5023305;28;45380;-82
2021/12/23 06:23:46;;;;;;;;;70.00;51.00;;;;;0.39;100.00;101063.28;5023279;28;44836;-82
2021/12/23 06:26:12;;;;;;;;;76.00;53.00;;;;;0.39;100.00;101063.28;5021025;28;45417;-83
2021/12/23 06:28:38;;;;;;;;;77.33;54.67;;;;;0.39;100.00;101067.66;5022678;28;44783;-83
2021/12/23 06:31:03;;;;;;;;;73.67;54.67;;;;;0.36;100.00;101060.72;5016926;28;45216;-86
2021/12/23 06:33:28;;;;;;;;;68.67;54.67;;;;;0.37;100.00;101070.25;5016512;28;44793;-83
2021/12/23 06:35:54;;;;;;;;;72.67;56.00;;;;;0.37;100.00;101064.19;5016618;28;45041;-81
2021/12/23 06:38:20;;;;;;;;;68.33;53.00;;;;;0.37;100.00;101074.63;5017228;28;45328;-81
2021/12/23 06:40:46;;;;;;;;;71.33;57.00;;;;;0.39;100.00;101072.88;5016291;28;45257;-81
2021/12/23 06:43:11;;;;;;;;;70.00;51.67;;;;;0.39;100.00;101073.72;5016253;28;44700;-81
2021/12/23 06:45:37;;;;;;;;;78.33;56.67;;;;;0.40;100.00;101082.44;5014852;28;45297;-81
2021/12/23 06:48:02;;;;;;;;;70.67;52.67;;;;;0.38;100.00;101078.97;5016413;28;45167;-80
2021/12/23 06:50:28;;;;;;;;;72.33;53.00;;;;;0.40;100.00;101082.44;5017305;28;45131;-81
2021/12/23 06:52:54;;;;;;;;;63.00;50.67;;;;;0.42;100.00;101071.03;5019396;28;44815;-81
2021/12/23 06:55:20;;;;;;;;;72.00;52.00;;;;;0.44;100.00;101074.50;5018524;28;44732;-81
2021/12/23 06:57:46;;;;;;;;;71.33;56.00;;;;;0.45;100.00;101067.50;5016359;28;44818;-81
2021/12/23 07:00:17;;;;;;;;;66.67;52.00;;;;;0.45;100.00;101070.13;5015683;28;45202;-82
2021/12/23 07:02:43;;;;;;;;;78.33;58.33;;;;;0.45;100.00;101070.97;5014056;28;44894;-80
2021/12/23 07:05:09;;;;;;;;;62.33;50.67;;;;;0.44;100.00;101071.88;5014828;28;45277;-82
2021/12/23 07:10:16;;;;;;;;;78.33;55.33;;;;;0.47;100.00;101077.03;5016540;28;45000;-81
2021/12/23 07:12:41;;;;;;;;;75.33;54.67;;;;;0.49;100.00;101080.50;5035837;28;44802;-80
2021/12/23 07:15:07;;;;;;;;;71.00;54.67;;;;;0.50;100.00;101074.38;5019914;28;45540;-81
2021/12/23 07:17:32;;;;;;;;;67.00;55.00;;;;;0.52;100.00;101071.72;5025000;28;44865;-81
2021/12/23 07:19:58;;;;;;;;;71.67;51.33;;;;;0.54;100.00;101075.19;5023906;28;45478;-81
2021/12/23 07:22:23;;;;;;;;;71.67;55.00;;;;;0.56;100.00;101078.59;5015779;28;45503;-82
2021/12/23 07:24:48;;;;;;;;;70.67;53.33;;;;;0.55;100.00;101079.50;5016024;28;45005;-85
2021/12/23 07:27:14;;;;;;;;;76.33;56.67;;;;;0.56;100.00;101083.84;5016589;28;44969;-87
2021/12/23 07:29:39;;;;;;;;;75.33;53.33;;;;;0.58;100.00;101084.69;5015303;28;45493;-80
2021/12/23 07:32:06;;;;;;;;;69.33;55.67;;;;;0.60;100.00;101082.03;5016186;28;44814;-83
2021/12/23 07:34:32;;;;;;;;;73.33;56.67;;;;;0.60;100.00;101084.63;5016987;28;45406;-83
2021/12/23 07:36:57;;;;;;;;;77.00;55.67;;;;;0.64;100.00;101083.69;5016539;28;45238;-84
2021/12/23 07:39:23;;;;;;;;;72.33;57.00;;;;;0.68;100.00;101087.97;5016205;28;45091;-82
2021/12/23 07:41:49;;;;;;;;;75.33;55.67;;;;;0.71;100.00;101085.28;5015862;28;44817;-83
2021/12/23 07:44:20;;;;;;;;;69.33;54.00;;;;;0.72;100.00;101081.75;5014328;28;45384;-84
2021/12/23 07:46:47;;;;;;;;;77.67;53.67;;;;;0.73;100.00;101086.13;5015138;28;44937;-83
2021/12/23 07:49:13;;;;;;;;;78.67;57.33;;;;;0.76;100.00;101088.66;5018607;28;45335;-83
2021/12/23 07:51:39;;;;;;;;;70.33;56.33;;;;;0.80;100.00;101094.69;5023143;28;44738;-87
2021/12/23 07:54:04;;;;;;;;;76.67;52.33;;;;;0.84;100.00;101091.13;5025703;28;44690;-84
2021/12/23 07:56:29;;;;;;;;;67.33;54.67;;;;;0.89;100.00;101086.66;5022471;28;44807;-84
2021/12/23 07:58:55;;;;;;;;;73.00;56.67;;;;;0.92;100.00;101089.19;5019626;28;45336;-83
2021/12/23 08:01:20;;;;;;;;;71.33;52.33;;;;;0.97;100.00;101087.34;5016758;28;45377;-83
2021/12/23 08:03:46;;;;;;;;;63.33;51.33;;;;;1.00;100.00;101082.88;5017841;28;44735;-85
2021/12/23 08:06:12;;;;;;;;;75.67;56.33;;;;;1.03;100.00;101079.38;5017127;28;45208;-84
2021/12/23 08:08:37;;;;;;;;;75.33;56.00;;;;;1.09;100.00;101087.06;5021425;28;45324;-81
2021/12/23 08:11:03;;;;;;;;;77.00;56.00;;;;;1.14;100.00;101090.44;5024858;28;45131;-84
2021/12/23 08:13:29;;;;;;;;;73.00;54.67;;;;;1.23;100.00;101092.84;5019471;28;45410;-84
2021/12/23 08:15:54;;;;;;;;;65.67;53.67;;;;;1.34;100.00;101084.75;5017992;28;45427;-83
2021/12/23 08:18:20;;;;;;;;;71.33;54.67;;;;;1.47;100.00;101082.72;5018577;28;45484;-86
2021/12/23 08:20:46;;;;;;;;;70.33;55.67;;;;;1.59;100.00;101076.31;5020708;28;44770;-84
2021/12/23 08:23:11;;;;;;;;;77.33;56.67;;;;;1.68;100.00;101076.09;5019219;28;44781;-85
2021/12/23 08:25:37;;;;;;;;;79.67;59.00;;;;;1.76;100.00;101080.25;5019149;28;44763;-83
2021/12/23 08:28:04;;;;;;;;;77.00;57.67;;;;;1.80;100.00;101076.66;5019086;28;45296;-87
2021/12/23 08:30:29;;;;;;;;;77.00;55.67;;;;;1.90;100.00;101082.50;5021849;28;45371;-84
2021/12/23 08:32:55;;;;;;;;;82.00;59.67;;;;;2.01;100.00;101071.75;5020769;28;45228;-83
2021/12/23 08:35:21;;;;;;;;;62.67;50.67;;;;;2.09;100.00;101067.16;5018922;28;45282;-85
2021/12/23 08:37:47;;;;;;;;;73.67;55.67;;;;;2.18;100.00;101064.31;5018565;28;45420;-83
2021/12/23 08:40:18;;;;;;;;;73.67;54.00;;;;;2.26;100.00;101058.84;5018807;28;44849;-83
2021/12/23 08:42:43;;;;;;;;;77.67;56.67;;;;;2.32;100.00;101053.41;5018457;28;44800;-83
2021/12/23 08:45:09;;;;;;;;;69.33;53.67;;;;;2.39;100.00;101060.22;5017942;28;45423;-84
2021/12/23 08:47:36;;;;;;;;;66.67;54.00;;;;;2.49;100.00;101063.44;5017894;28;45435;-82
2021/12/23 08:50:04;;;;;;;;;59.67;48.00;;;;;2.56;100.00;101063.25;5018819;28;45414;-84
2021/12/23 08:52:29;;;;;;;;;68.67;52.67;;;;;2.63;100.00;101053.41;5023217;28;44851;-83
2021/12/23 08:54:54;;;;;;;;;74.33;51.33;;;;;2.73;100.00;101059.25;5023986;28;44889;-83
2021/12/23 08:57:20;;;;;;;;;65.67;52.00;;;;;2.77;100.00;101042.53;5026292;28;45454;-83
2021/12/23 08:59:46;;;;;;;;;69.33;53.67;;;;;2.84;100.00;101046.69;5028377;28;44706;-83
2021/12/23 09:02:12;;;;;;;;;65.00;54.00;;;;;2.88;100.00;101053.56;5026016;28;44739;-83
2021/12/23 09:04:38;;;;;;;;;66.33;52.33;;;;;2.93;100.00;101056.03;5026830;28;45385;-83
2021/12/23 09:07:04;;;;;;;;;75.33;54.33;;;;;2.95;100.00;101052.47;5017764;28;45108;-83
2021/12/23 09:09:31;;;;;;;;;73.33;54.00;;;;;2.99;100.00;101040.94;5019935;28;45420;-84
2021/12/23 09:11:57;;;;;;;;;70.67;54.33;;;;;3.06;100.00;101052.16;5024049;28;44917;-83
2021/12/23 09:14:22;;;;;;;;;64.67;52.67;;;;;3.13;100.00;101052.81;5022781;28;45222;-84
2021/12/23 09:16:50;;;;;;;;;72.00;54.00;;;;;3.23;100.00;101052.47;5020304;28;44967;-83
2021/12/23 09:19:16;;;;;;;;;79.00;58.67;;;;;3.31;100.00;101053.09;5018370;28;45312;-84
2021/12/23 09:21:41;;;;;;;;;67.33;56.33;;;;;3.42;100.00;101057.13;5017473;28;45399;-83
2021/12/23 09:24:07;;;;;;;;;72.33;54.00;;;;;3.49;100.00;101064.78;5016103;28;45463;-83
2021/12/23 09:26:44;;;;;;;;;72.00;55.67;;;;;3.59;100.00;101058.31;5016558;28;45189;-85
2021/12/23 09:29:18;;;;;;;;;69.00;54.00;;;;;3.67;100.00;101058.03;5018882;28;44767;-83
2021/12/23 09:34:28;;;;;;;;;74.67;57.33;;;;;3.82;100.00;101051.41;5018202;28;44813;-84
2021/12/23 09:36:53;;;;;;;;;67.00;51.00;;;;;3.85;100.00;101049.53;5018389;28;45285;-82
2021/12/23 09:39:21;;;;;;;;;66.67;52.33;;;;;3.88;100.00;101045.97;5018888;28;45445;-84
2021/12/23 09:41:47;;;;;;;;;67.33;52.33;;;;;3.94;100.00;101051.00;5019372;28;44709;-84
2021/12/23 09:44:15;;;;;;;;;73.33;53.33;;;;;3.99;100.00;101059.59;5019150;28;44769;-84
2021/12/23 09:46:41;;;;;;;;;71.33;57.00;;;;;4.07;100.00;101059.34;5019248;28;45231;-84
2021/12/23 09:49:09;;;;;;;;;72.00;55.67;;;;;4.09;100.00;101045.19;5020446;28;44741;-82
2021/12/23 09:51:36;;;;;;;;;74.33;52.67;;;;;4.17;100.00;101051.97;5019914;28;44765;-86
2021/12/23 09:54:09;;;;;;;;;70.00;54.00;;;;;4.24;100.00;101050.84;5026811;28;45266;-84
2021/12/23 09:56:35;;;;;;;;;72.33;55.00;;;;;4.32;100.00;101040.91;5024669;28;45018;-83
2021/12/23 09:59:06;;;;;;;;;60.00;43.67;;;;;4.38;100.00;101043.31;5024922;28;45151;-84
2021/12/23 10:01:31;;;;;;;;;71.00;55.67;;;;;4.46;100.00;101036.00;5023314;28;44786;-84
2021/12/23 10:03:57;;;;;;;;;73.00;54.00;;;;;4.56;100.00;101033.88;5021971;28;44772;-84
2021/12/23 10:06:24;;;;;;;;;66.00;50.33;;;;;4.64;100.00;101037.06;5017562;28;44880;-84
2021/12/23 10:08:50;;;;;;;;;67.33;52.33;;;;;4.72;100.00;101036.78;5017936;28;44707;-85
2021/12/23 10:11:26;;;;;;;;;69.67;52.33;;;;;4.80;100.00;101032.09;5034339;28;44730;-83
2021/12/23 10:31:58;;;;;;;;;60.33;47.00;;;;;5.49;100.00;100995.09;5005551;28;44796;-83
2021/12/23 10:37:19;;;;;;;;;62.67;51.00;;;;;5.66;100.00;100990.00;5015482;28;45244;-83
2021/12/23 10:39:44;;;;;;;;;65.67;50.00;;;;;5.74;100.00;100987.88;5016689;28;45335;-82
2021/12/23 10:42:17;;;;;;;;;60.00;47.67;;;;;5.82;100.00;100991.03;5016097;28;45411;-83
2021/12/23 10:44:55;;;;;;;;;60.00;47.67;;;;;5.91;100.00;100981.88;4998335;28;45537;-83
2021/12/23 10:47:42;;;;;;;;;65.00;48.67;;;;;6.02;100.00;100982.28;5012793;28;45332;-83
2021/12/23 10:50:45;;;;;;;;;67.00;50.67;;;;;6.08;100.00;100979.38;5020382;28;45318;-83
2021/12/23 10:59:07;;;;;;;;;56.33;46.00;;;;;6.33;100.00;100967.72;5016289;28;44808;-82
2021/12/23 11:01:37;;;;;;;;;54.33;43.67;;;;;6.28;100.00;100965.28;5016059;28;45010;-83
2021/12/23 11:04:05;;;;;;;;;52.33;41.00;;;;;6.36;100.00;100957.88;5018759;28;44787;-82
2021/12/23 11:06:56;;;;;;;;;54.33;43.00;;;;;6.46;100.00;100963.59;5018109;28;45412;-82
2021/12/23 11:27:19;;;;;;;;;56.00;45.67;;;;;6.60;100.00;100955.91;5015352;28;45021;-82
2021/12/23 11:39:28;;;;;;;;;54.33;44.33;;;;;7.38;100.00;100914.25;4987540;28;44790;-82
2021/12/23 11:42:13;;;;;;;;;50.00;42.00;;;;;7.45;100.00;100913.88;4982347;28;45484;-81
2021/12/23 11:44:38;;;;;;;;;53.33;41.33;;;;;7.59;100.00;100917.56;4981624;28;45427;-83
2021/12/23 11:47:14;;;;;;;;;57.33;43.67;;;;;7.66;100.00;100924.25;4981631;28;44827;-82
2021/12/23 11:49:43;;;;;;;;;58.67;42.33;;;;;7.78;100.00;100931.53;4982722;28;44854;-82
2021/12/23 11:52:09;;;;;;;;;58.67;46.33;;;;;7.87;100.00;100917.84;4981423;28;45173;-83
2021/12/23 11:54:41;;;;;;;;;49.33;41.00;;;;;7.96;100.00;100911.22;5010614;28;45534;-82
2021/12/23 11:57:23;;;;;;;;;50.33;37.33;;;;;8.02;100.00;100902.09;5019275;28;44779;-80
2021/12/23 12:00:09;;;;;;;;;49.00;39.00;;;;;8.05;100.00;100905.44;5019374;28;44760;-81
2021/12/23 12:02:34;;;;;;;;;51.00;42.00;;;;;8.08;100.00;100907.06;5019126;28;44968;-82
2021/12/23 12:05:05;;;;;;;;;33.00;30.67;;;;;8.22;100.00;100905.38;5023411;28;45501;-82
2021/12/23 12:07:30;;;;;;;;;44.67;35.33;;;;;8.34;100.00;100889.75;5024529;28;44783;-81
2021/12/23 12:09:57;;;;;;;;;44.00;35.00;;;;;8.45;100.00;100903.28;5018304;28;45372;-82